sensor_id;sensor_type;location;lat;lon;timestamp;P1;durP1;ratioP1;P2;durP2;ratioP2
42514;SDS011;28144;49.920;18.730;2022-09-27T00:01:01;52.47;;;29.60;;
42514;SDS011;28144;49.920;18.730;2022-09-27T00:03:34;45.08;;;27.67;;
42514;SDS011;28144;49.920;18.730;2022-09-27T00:06:04;50.77;;;28.60;;
42514;SDS011;28144;49.920;18.730;2022-09-27T00:08:32;50.00;;;28.00;;
42514;SDS011;28144;49.920;18.730;2022-09-27T00:11:32;60.33;;;31.35;;
42514;SDS011;28144;49.920;18.730;2022-09-27T00:13:53;47.40;;;29.00;;
42514;SDS011;28144;49.920;18.730;2022-09-27T00:16:20;51.70;;;29.90;;
42514;SDS011;28144;49.920;18.730;2022-09-27T00:18:47;46.03;;;28.43;;
42514;SDS011;28144;49.920;18.730;2022-09-27T00:21:13;47.00;;;29.10;;
42514;SDS011;28144;49.920;18.730;2022-09-27T00:23:38;51.80;;;32.07;;
42514;SDS011;28144;49.920;18.730;2022-09-27T00:26:05;59.05;;;33.08;;
42514;SDS011;28144;49.920;18.730;2022-09-27T00:30:57;55.00;;;36.05;;
42514;SDS011;28144;49.920;18.730;2022-09-27T00:33:23;50.75;;;30.05;;
42514;SDS011;28144;49.920;18.730;2022-09-27T00:35:50;56.65;;;30.55;;
42514;SDS011;28144;49.920;18.730;2022-09-27T00:38:15;54.60;;;31.90;;
42514;SDS011;28144;49.920;18.730;2022-09-27T00:40:41;49.87;;;29.70;;
42514;SDS011;28144;49.920;18.730;2022-09-27T00:43:18;43.85;;;29.08;;
42514;SDS011;28144;49.920;18.730;2022-09-27T00:45:49;50.30;;;31.90;;
42514;SDS011;28144;49.920;18.730;2022-09-27T00:48:26;55.30;;;32.13;;
42514;SDS011;28144;49.920;18.730;2022-09-27T00:50:55;48.77;;;30.70;;
42514;SDS011;28144;49.920;18.730;2022-09-27T00:53:26;52.87;;;30.40;;
42514;SDS011;28144;49.920;18.730;2022-09-27T00:55:56;135.03;;;55.47;;
42514;SDS011;28144;49.920;18.730;2022-09-27T00:58:29;107.67;;;57.97;;
42514;SDS011;28144;49.920;18.730;2022-09-27T01:01:01;102.37;;;58.20;;
42514;SDS011;28144;49.920;18.730;2022-09-27T01:06:16;63.28;;;35.60;;
42514;SDS011;28144;49.920;18.730;2022-09-27T01:08:44;44.90;;;28.60;;
42514;SDS011;28144;49.920;18.730;2022-09-27T01:13:42;56.63;;;31.07;;
42514;SDS011;28144;49.920;18.730;2022-09-27T01:16:24;56.77;;;28.90;;
42514;SDS011;28144;49.920;18.730;2022-09-27T01:33:07;53.73;;;30.10;;
42514;SDS011;28144;49.920;18.730;2022-09-27T01:41:05;62.53;;;31.47;;
42514;SDS011;28144;49.920;18.730;2022-09-27T01:46:22;122.60;;;36.30;;
42514;SDS011;28144;49.920;18.730;2022-09-27T01:48:51;321.53;;;36.60;;
42514;SDS011;28144;49.920;18.730;2022-09-27T01:51:21;175.40;;;29.67;;
42514;SDS011;28144;49.920;18.730;2022-09-27T01:53:51;121.80;;;27.40;;
42514;SDS011;28144;49.920;18.730;2022-09-27T01:56:21;321.63;;;30.70;;
42514;SDS011;28144;49.920;18.730;2022-09-27T01:58:52;51.33;;;28.30;;
42514;SDS011;28144;49.920;18.730;2022-09-27T02:01:33;45.53;;;27.27;;
42514;SDS011;28144;49.920;18.730;2022-09-27T02:04:00;46.30;;;29.20;;
42514;SDS011;28144;49.920;18.730;2022-09-27T02:06:32;47.80;;;28.38;;
42514;SDS011;28144;49.920;18.730;2022-09-27T02:11:40;53.03;;;33.27;;
42514;SDS011;28144;49.920;18.730;2022-09-27T02:14:20;70.97;;;32.53;;
42514;SDS011;28144;49.920;18.730;2022-09-27T02:17:05;89.77;;;36.97;;
42514;SDS011;28144;49.920;18.730;2022-09-27T02:27:31;127.07;;;28.83;;
42514;SDS011;28144;49.920;18.730;2022-09-27T02:30:06;97.10;;;28.20;;
42514;SDS011;28144;49.920;18.730;2022-09-27T02:32:34;291.48;;;33.83;;
42514;SDS011;28144;49.920;18.730;2022-09-27T02:35:02;42.77;;;27.17;;
42514;SDS011;28144;49.920;18.730;2022-09-27T02:37:32;41.87;;;26.70;;
42514;SDS011;28144;49.920;18.730;2022-09-27T02:39:58;44.63;;;27.60;;
42514;SDS011;28144;49.920;18.730;2022-09-27T02:42:24;164.52;;;36.25;;
42514;SDS011;28144;49.920;18.730;2022-09-27T02:44:51;64.30;;;32.38;;
42514;SDS011;28144;49.920;18.730;2022-09-27T02:53:14;47.43;;;28.73;;
42514;SDS011;28144;49.920;18.730;2022-09-27T02:58:34;48.10;;;29.93;;
42514;SDS011;28144;49.920;18.730;2022-09-27T03:03:45;64.87;;;38.07;;
42514;SDS011;28144;49.920;18.730;2022-09-27T03:06:16;63.23;;;40.73;;
42514;SDS011;28144;49.920;18.730;2022-09-27T03:08:43;55.72;;;31.98;;
42514;SDS011;28144;49.920;18.730;2022-09-27T03:11:09;51.93;;;31.70;;
42514;SDS011;28144;49.920;18.730;2022-09-27T03:13:34;50.97;;;31.40;;
42514;SDS011;28144;49.920;18.730;2022-09-27T03:16:03;48.40;;;28.67;;
42514;SDS011;28144;49.920;18.730;2022-09-27T03:18:30;47.27;;;30.37;;
42514;SDS011;28144;49.920;18.730;2022-09-27T03:20:56;59.55;;;39.25;;
42514;SDS011;28144;49.920;18.730;2022-09-27T03:23:22;74.73;;;45.23;;
42514;SDS011;28144;49.920;18.730;2022-09-27T03:25:48;61.07;;;39.13;;
42514;SDS011;28144;49.920;18.730;2022-09-27T03:28:14;55.47;;;34.00;;
42514;SDS011;28144;49.920;18.730;2022-09-27T03:30:40;44.92;;;30.48;;
42514;SDS011;28144;49.920;18.730;2022-09-27T03:33:07;47.80;;;30.25;;
42514;SDS011;28144;49.920;18.730;2022-09-27T03:35:36;49.80;;;30.43;;
42514;SDS011;28144;49.920;18.730;2022-09-27T03:38:02;50.97;;;28.87;;
42514;SDS011;28144;49.920;18.730;2022-09-27T03:40:28;56.35;;;29.67;;
42514;SDS011;28144;49.920;18.730;2022-09-27T03:42:54;45.00;;;28.60;;
42514;SDS011;28144;49.920;18.730;2022-09-27T03:45:19;47.30;;;27.80;;
42514;SDS011;28144;49.920;18.730;2022-09-27T03:47:45;45.63;;;28.03;;
42514;SDS011;28144;49.920;18.730;2022-09-27T03:50:12;47.90;;;29.50;;
42514;SDS011;28144;49.920;18.730;2022-09-27T03:52:38;49.97;;;29.85;;
42514;SDS011;28144;49.920;18.730;2022-09-27T03:55:04;41.47;;;27.03;;
42514;SDS011;28144;49.920;18.730;2022-09-27T03:57:30;50.63;;;28.40;;
42514;SDS011;28144;49.920;18.730;2022-09-27T03:59:57;49.83;;;29.47;;
42514;SDS011;28144;49.920;18.730;2022-09-27T04:02:24;52.30;;;32.87;;
42514;SDS011;28144;49.920;18.730;2022-09-27T04:04:51;83.13;;;32.83;;
42514;SDS011;28144;49.920;18.730;2022-09-27T04:07:16;289.87;;;35.80;;
42514;SDS011;28144;49.920;18.730;2022-09-27T04:09:42;451.57;;;39.37;;
42514;SDS011;28144;49.920;18.730;2022-09-27T04:12:08;653.25;;;42.08;;
42514;SDS011;28144;49.920;18.730;2022-09-27T04:14:34;433.63;;;35.60;;
42514;SDS011;28144;49.920;18.730;2022-09-27T04:17:00;361.80;;;48.37;;
42514;SDS011;28144;49.920;18.730;2022-09-27T04:19:26;400.97;;;39.20;;
42514;SDS011;28144;49.920;18.730;2022-09-27T04:21:51;338.90;;;45.83;;
42514;SDS011;28144;49.920;18.730;2022-09-27T04:24:17;88.20;;;32.23;;
42514;SDS011;28144;49.920;18.730;2022-09-27T04:26:43;81.70;;;32.97;;
42514;SDS011;28144;49.920;18.730;2022-09-27T04:29:08;64.33;;;32.13;;
42514;SDS011;28144;49.920;18.730;2022-09-27T04:31:35;250.83;;;34.73;;
42514;SDS011;28144;49.920;18.730;2022-09-27T04:34:03;122.67;;;31.30;;
42514;SDS011;28144;49.920;18.730;2022-09-27T04:36:31;128.03;;;28.40;;
42514;SDS011;28144;49.920;18.730;2022-09-27T04:38:58;121.68;;;28.92;;
42514;SDS011;28144;49.920;18.730;2022-09-27T04:41:27;106.77;;;26.83;;
42514;SDS011;28144;49.920;18.730;2022-09-27T04:43:55;171.05;;;29.65;;
42514;SDS011;28144;49.920;18.730;2022-09-27T04:46:21;241.10;;;29.63;;
42514;SDS011;28144;49.920;18.730;2022-09-27T04:48:48;76.57;;;26.35;;
42514;SDS011;28144;49.920;18.730;2022-09-27T04:51:14;265.17;;;33.53;;
42514;SDS011;28144;49.920;18.730;2022-09-27T04:53:44;291.97;;;35.60;;
42514;SDS011;28144;49.920;18.730;2022-09-27T04:56:11;96.50;;;32.20;;
42514;SDS011;28144;49.920;18.730;2022-09-27T04:58:38;184.47;;;34.70;;
42514;SDS011;28144;49.920;18.730;2022-09-27T05:01:04;67.40;;;29.92;;
42514;SDS011;28144;49.920;18.730;2022-09-27T05:03:31;142.10;;;34.58;;
42514;SDS011;28144;49.920;18.730;2022-09-27T05:05:57;79.32;;;31.33;;
42514;SDS011;28144;49.920;18.730;2022-09-27T05:08:23;97.50;;;34.83;;
42514;SDS011;28144;49.920;18.730;2022-09-27T05:10:49;80.70;;;36.67;;
42514;SDS011;28144;49.920;18.730;2022-09-27T05:13:15;100.53;;;40.03;;
42514;SDS011;28144;49.920;18.730;2022-09-27T05:15:41;60.67;;;36.53;;
42514;SDS011;28144;49.920;18.730;2022-09-27T05:18:07;59.10;;;34.83;;
42514;SDS011;28144;49.920;18.730;2022-09-27T05:23:03;47.87;;;28.90;;
42514;SDS011;28144;49.920;18.730;2022-09-27T05:25:29;46.90;;;29.90;;
42514;SDS011;28144;49.920;18.730;2022-09-27T05:27:56;56.03;;;32.78;;
42514;SDS011;28144;49.920;18.730;2022-09-27T05:30:23;52.67;;;30.13;;
42514;SDS011;28144;49.920;18.730;2022-09-27T05:35:16;48.25;;;29.17;;
42514;SDS011;28144;49.920;18.730;2022-09-27T05:37:43;50.47;;;31.70;;
42514;SDS011;28144;49.920;18.730;2022-09-27T05:40:16;49.30;;;30.47;;
42514;SDS011;28144;49.920;18.730;2022-09-27T05:42:41;48.53;;;31.53;;
42514;SDS011;28144;49.920;18.730;2022-09-27T05:45:07;47.23;;;29.70;;
42514;SDS011;28144;49.920;18.730;2022-09-27T05:47:33;51.60;;;31.20;;
42514;SDS011;28144;49.920;18.730;2022-09-27T05:49:59;47.10;;;30.10;;
42514;SDS011;28144;49.920;18.730;2022-09-27T05:52:25;47.10;;;30.93;;
42514;SDS011;28144;49.920;18.730;2022-09-27T05:54:50;60.73;;;37.30;;
42514;SDS011;28144;49.920;18.730;2022-09-27T05:57:16;57.27;;;31.70;;
42514;SDS011;28144;49.920;18.730;2022-09-27T05:59:42;51.50;;;30.27;;
42514;SDS011;28144;49.920;18.730;2022-09-27T06:02:09;48.73;;;29.87;;
42514;SDS011;28144;49.920;18.730;2022-09-27T06:04:35;49.77;;;29.83;;
42514;SDS011;28144;49.920;18.730;2022-09-27T06:07:01;53.17;;;31.97;;
42514;SDS011;28144;49.920;18.730;2022-09-27T06:09:27;47.43;;;30.57;;
42514;SDS011;28144;49.920;18.730;2022-09-27T06:11:53;50.50;;;32.13;;
42514;SDS011;28144;49.920;18.730;2022-09-27T06:14:19;63.80;;;38.17;;
42514;SDS011;28144;49.920;18.730;2022-09-27T06:16:45;66.13;;;36.63;;
42514;SDS011;28144;49.920;18.730;2022-09-27T06:19:10;62.47;;;36.97;;
42514;SDS011;28144;49.920;18.730;2022-09-27T06:21:37;63.00;;;38.38;;
42514;SDS011;28144;49.920;18.730;2022-09-27T06:24:03;57.93;;;35.03;;
42514;SDS011;28144;49.920;18.730;2022-09-27T06:26:28;52.30;;;35.30;;
42514;SDS011;28144;49.920;18.730;2022-09-27T06:28:55;64.65;;;38.83;;
42514;SDS011;28144;49.920;18.730;2022-09-27T06:31:21;273.07;;;95.90;;
42514;SDS011;28144;49.920;18.730;2022-09-27T06:33:47;145.20;;;63.33;;
42514;SDS011;28144;49.920;18.730;2022-09-27T06:38:40;82.80;;;46.00;;
42514;SDS011;28144;49.920;18.730;2022-09-27T06:41:06;180.93;;;86.00;;
42514;SDS011;28144;49.920;18.730;2022-09-27T06:43:33;64.27;;;39.53;;
42514;SDS011;28144;49.920;18.730;2022-09-27T06:45:59;56.70;;;33.80;;
42514;SDS011;28144;49.920;18.730;2022-09-27T06:48:33;58.13;;;38.93;;
42514;SDS011;28144;49.920;18.730;2022-09-27T06:51:00;55.10;;;36.00;;
42514;SDS011;28144;49.920;18.730;2022-09-27T06:53:26;45.80;;;31.95;;
42514;SDS011;28144;49.920;18.730;2022-09-27T06:55:56;59.35;;;33.13;;
42514;SDS011;28144;49.920;18.730;2022-09-27T06:58:23;49.42;;;28.50;;
42514;SDS011;28144;49.920;18.730;2022-09-27T07:01:07;48.92;;;31.23;;
42514;SDS011;28144;49.920;18.730;2022-09-27T07:03:33;30.00;;;20.23;;
42514;SDS011;28144;49.920;18.730;2022-09-27T07:06:05;28.73;;;18.83;;
42514;SDS011;28144;49.920;18.730;2022-09-27T07:08:31;27.17;;;16.90;;
42514;SDS011;28144;49.920;18.730;2022-09-27T07:11:02;32.47;;;19.92;;
42514;SDS011;28144;49.920;18.730;2022-09-27T07:13:29;25.95;;;18.05;;
42514;SDS011;28144;49.920;18.730;2022-09-27T07:15:57;28.92;;;19.95;;
42514;SDS011;28144;49.920;18.730;2022-09-27T07:18:23;23.50;;;16.83;;
42514;SDS011;28144;49.920;18.730;2022-09-27T07:20:49;25.53;;;18.17;;
42514;SDS011;28144;49.920;18.730;2022-09-27T07:23:15;27.43;;;18.37;;
42514;SDS011;28144;49.920;18.730;2022-09-27T07:25:41;29.48;;;19.88;;
42514;SDS011;28144;49.920;18.730;2022-09-27T07:28:09;33.57;;;21.03;;
42514;SDS011;28144;49.920;18.730;2022-09-27T07:30:38;39.03;;;23.63;;
42514;SDS011;28144;49.920;18.730;2022-09-27T07:33:04;34.10;;;22.60;;
42514;SDS011;28144;49.920;18.730;2022-09-27T07:35:30;39.40;;;24.70;;
42514;SDS011;28144;49.920;18.730;2022-09-27T07:37:56;24.47;;;15.37;;
42514;SDS011;28144;49.920;18.730;2022-09-27T07:42:55;21.98;;;14.77;;
42514;SDS011;28144;49.920;18.730;2022-09-27T07:45:22;24.33;;;13.43;;
42514;SDS011;28144;49.920;18.730;2022-09-27T07:47:48;36.25;;;22.55;;
42514;SDS011;28144;49.920;18.730;2022-09-27T07:50:14;20.90;;;12.35;;
42514;SDS011;28144;49.920;18.730;2022-09-27T07:52:40;27.98;;;16.45;;
42514;SDS011;28144;49.920;18.730;2022-09-27T07:55:08;18.45;;;11.95;;
42514;SDS011;28144;49.920;18.730;2022-09-27T07:57:35;25.73;;;14.48;;
42514;SDS011;28144;49.920;18.730;2022-09-27T08:00:02;15.43;;;11.75;;
42514;SDS011;28144;49.920;18.730;2022-09-27T08:02:29;24.35;;;16.38;;
42514;SDS011;28144;49.920;18.730;2022-09-27T08:04:57;18.63;;;13.65;;
42514;SDS011;28144;49.920;18.730;2022-09-27T08:07:26;11.30;;;6.82;;
42514;SDS011;28144;49.920;18.730;2022-09-27T08:09:52;11.35;;;7.95;;
42514;SDS011;28144;49.920;18.730;2022-09-27T08:12:18;13.67;;;9.70;;
42514;SDS011;28144;49.920;18.730;2022-09-27T08:14:46;10.95;;;8.85;;
42514;SDS011;28144;49.920;18.730;2022-09-27T08:19:38;13.10;;;8.57;;
42514;SDS011;28144;49.920;18.730;2022-09-27T08:24:30;15.02;;;10.90;;
42514;SDS011;28144;49.920;18.730;2022-09-27T08:26:57;14.48;;;10.68;;
42514;SDS011;28144;49.920;18.730;2022-09-27T08:29:23;14.65;;;10.25;;
42514;SDS011;28144;49.920;18.730;2022-09-27T08:31:49;14.43;;;10.27;;
42514;SDS011;28144;49.920;18.730;2022-09-27T08:36:41;16.57;;;13.20;;
42514;SDS011;28144;49.920;18.730;2022-09-27T08:47:10;24.33;;;16.00;;
42514;SDS011;28144;49.920;18.730;2022-09-27T08:49:39;19.27;;;10.95;;
42514;SDS011;28144;49.920;18.730;2022-09-27T08:52:11;12.68;;;7.75;;
42514;SDS011;28144;49.920;18.730;2022-09-27T08:54:41;27.25;;;15.80;;
42514;SDS011;28144;49.920;18.730;2022-09-27T09:02:29;11.05;;;7.95;;
42514;SDS011;28144;49.920;18.730;2022-09-27T09:04:56;13.07;;;8.60;;
42514;SDS011;28144;49.920;18.730;2022-09-27T09:07:50;10.07;;;6.97;;
42514;SDS011;28144;49.920;18.730;2022-09-27T09:13:35;12.60;;;7.65;;
42514;SDS011;28144;49.920;18.730;2022-09-27T09:18:45;15.25;;;9.75;;
42514;SDS011;28144;49.920;18.730;2022-09-27T09:24:17;15.13;;;9.55;;
42514;SDS011;28144;49.920;18.730;2022-09-27T09:27:09;13.52;;;8.30;;
42514;SDS011;28144;49.920;18.730;2022-09-27T09:29:50;15.93;;;9.88;;
42514;SDS011;28144;49.920;18.730;2022-09-27T09:34:56;11.27;;;7.50;;
42514;SDS011;28144;49.920;18.730;2022-09-27T09:40:05;15.35;;;8.05;;
42514;SDS011;28144;49.920;18.730;2022-09-27T09:42:39;12.38;;;8.02;;
42514;SDS011;28144;49.920;18.730;2022-09-27T09:45:14;13.10;;;7.38;;
42514;SDS011;28144;49.920;18.730;2022-09-27T09:55:58;15.40;;;8.88;;
42514;SDS011;28144;49.920;18.730;2022-09-27T10:01:07;11.73;;;8.23;;
42514;SDS011;28144;49.920;18.730;2022-09-27T10:03:38;20.15;;;9.88;;
42514;SDS011;28144;49.920;18.730;2022-09-27T10:06:04;19.17;;;9.13;;
42514;SDS011;28144;49.920;18.730;2022-09-27T10:08:30;18.27;;;9.55;;
42514;SDS011;28144;49.920;18.730;2022-09-27T10:10:57;18.27;;;8.75;;
42514;SDS011;28144;49.920;18.730;2022-09-27T10:13:23;17.17;;;9.47;;
42514;SDS011;28144;49.920;18.730;2022-09-27T10:16:22;15.63;;;8.33;;
42514;SDS011;28144;49.920;18.730;2022-09-27T10:18:41;16.77;;;9.27;;
42514;SDS011;28144;49.920;18.730;2022-09-27T10:21:12;14.40;;;9.37;;
42514;SDS011;28144;49.920;18.730;2022-09-27T10:26:43;14.00;;;8.18;;
42514;SDS011;28144;49.920;18.730;2022-09-27T10:29:21;13.02;;;8.02;;
42514;SDS011;28144;49.920;18.730;2022-09-27T10:31:48;14.02;;;8.48;;
42514;SDS011;28144;49.920;18.730;2022-09-27T10:34:36;14.25;;;8.57;;
42514;SDS011;28144;49.920;18.730;2022-09-27T10:39:28;20.13;;;10.35;;
42514;SDS011;28144;49.920;18.730;2022-09-27T10:41:54;15.93;;;9.47;;
42514;SDS011;28144;49.920;18.730;2022-09-27T10:44:23;14.70;;;9.63;;
42514;SDS011;28144;49.920;18.730;2022-09-27T10:46:51;19.27;;;10.60;;
42514;SDS011;28144;49.920;18.730;2022-09-27T10:51:45;22.52;;;10.43;;
42514;SDS011;28144;49.920;18.730;2022-09-27T10:54:17;15.98;;;10.07;;
42514;SDS011;28144;49.920;18.730;2022-09-27T10:56:44;21.67;;;10.20;;
42514;SDS011;28144;49.920;18.730;2022-09-27T10:59:20;15.63;;;10.23;;
42514;SDS011;28144;49.920;18.730;2022-09-27T11:01:46;16.27;;;9.50;;
42514;SDS011;28144;49.920;18.730;2022-09-27T11:04:31;5.47;;;4.25;;
42514;SDS011;28144;49.920;18.730;2022-09-27T11:07:10;12.30;;;4.90;;
42514;SDS011;28144;49.920;18.730;2022-09-27T11:09:48;9.40;;;5.68;;
42514;SDS011;28144;49.920;18.730;2022-09-27T11:12:19;10.15;;;7.07;;
42514;SDS011;28144;49.920;18.730;2022-09-27T11:14:55;8.82;;;5.80;;
42514;SDS011;28144;49.920;18.730;2022-09-27T11:17:31;9.23;;;6.00;;
42514;SDS011;28144;49.920;18.730;2022-09-27T11:20:07;11.20;;;7.28;;
42514;SDS011;28144;49.920;18.730;2022-09-27T11:28:32;13.50;;;7.22;;
42514;SDS011;28144;49.920;18.730;2022-09-27T11:57:39;10.35;;;5.93;;
42514;SDS011;28144;49.920;18.730;2022-09-27T12:08:47;9.35;;;6.32;;
42514;SDS011;28144;49.920;18.730;2022-09-27T12:11:25;10.27;;;5.93;;
42514;SDS011;28144;49.920;18.730;2022-09-27T12:13:58;9.02;;;4.80;;
42514;SDS011;28144;49.920;18.730;2022-09-27T12:16:27;5.38;;;4.63;;
42514;SDS011;28144;49.920;18.730;2022-09-27T12:18:55;8.60;;;5.05;;
42514;SDS011;28144;49.920;18.730;2022-09-27T12:21:22;8.15;;;6.32;;
42514;SDS011;28144;49.920;18.730;2022-09-27T12:23:49;7.43;;;5.28;;
42514;SDS011;28144;49.920;18.730;2022-09-27T12:26:28;8.60;;;4.85;;
42514;SDS011;28144;49.920;18.730;2022-09-27T12:31:55;10.52;;;7.95;;
42514;SDS011;28144;49.920;18.730;2022-09-27T12:37:12;6.38;;;4.97;;
42514;SDS011;28144;49.920;18.730;2022-09-27T12:39:52;8.85;;;6.15;;
42514;SDS011;28144;49.920;18.730;2022-09-27T12:42:23;10.40;;;5.93;;
42514;SDS011;28144;49.920;18.730;2022-09-27T12:44:50;7.50;;;5.68;;
42514;SDS011;28144;49.920;18.730;2022-09-27T12:50:16;7.25;;;5.40;;
42514;SDS011;28144;49.920;18.730;2022-09-27T12:52:55;9.85;;;6.93;;
42514;SDS011;28144;49.920;18.730;2022-09-27T12:55:38;7.38;;;6.07;;
42514;SDS011;28144;49.920;18.730;2022-09-27T13:07:10;10.55;;;8.00;;
42514;SDS011;28144;49.920;18.730;2022-09-27T13:12:38;10.13;;;7.25;;
42514;SDS011;28144;49.920;18.730;2022-09-27T13:15:15;9.52;;;7.53;;
42514;SDS011;28144;49.920;18.730;2022-09-27T13:17:50;11.10;;;7.50;;
42514;SDS011;28144;49.920;18.730;2022-09-27T13:22:56;13.15;;;5.68;;
42514;SDS011;28144;49.920;18.730;2022-09-27T13:41:26;9.00;;;6.82;;
42514;SDS011;28144;49.920;18.730;2022-09-27T13:43:58;9.82;;;4.63;;
42514;SDS011;28144;49.920;18.730;2022-09-27T13:46:46;8.57;;;5.45;;
42514;SDS011;28144;49.920;18.730;2022-09-27T13:49:34;10.65;;;7.88;;
42514;SDS011;28144;49.920;18.730;2022-09-27T13:52:02;9.65;;;5.90;;
42514;SDS011;28144;49.920;18.730;2022-09-27T14:00:02;9.77;;;4.65;;
42514;SDS011;28144;49.920;18.730;2022-09-27T14:02:30;8.75;;;5.75;;
42514;SDS011;28144;49.920;18.730;2022-09-27T14:05:02;11.15;;;7.07;;
42514;SDS011;28144;49.920;18.730;2022-09-27T14:07:34;8.13;;;4.47;;
42514;SDS011;28144;49.920;18.730;2022-09-27T14:10:03;8.05;;;5.03;;
42514;SDS011;28144;49.920;18.730;2022-09-27T14:12:33;11.27;;;6.22;;
42514;SDS011;28144;49.920;18.730;2022-09-27T14:15:00;10.25;;;5.55;;
42514;SDS011;28144;49.920;18.730;2022-09-27T14:17:26;7.33;;;4.30;;
42514;SDS011;28144;49.920;18.730;2022-09-27T14:19:52;8.02;;;3.72;;
42514;SDS011;28144;49.920;18.730;2022-09-27T14:22:19;6.35;;;4.10;;
42514;SDS011;28144;49.920;18.730;2022-09-27T14:24:47;4.63;;;3.50;;
42514;SDS011;28144;49.920;18.730;2022-09-27T14:27:15;11.82;;;4.93;;
42514;SDS011;28144;49.920;18.730;2022-09-27T14:32:21;7.30;;;5.70;;
42514;SDS011;28144;49.920;18.730;2022-09-27T14:37:57;6.80;;;3.72;;
42514;SDS011;28144;49.920;18.730;2022-09-27T14:40:24;5.38;;;3.63;;
42514;SDS011;28144;49.920;18.730;2022-09-27T14:42:59;9.00;;;4.37;;
42514;SDS011;28144;49.920;18.730;2022-09-27T14:45:35;6.30;;;4.60;;
42514;SDS011;28144;49.920;18.730;2022-09-27T14:48:15;5.43;;;4.35;;
42514;SDS011;28144;49.920;18.730;2022-09-27T14:50:56;5.30;;;3.45;;
42514;SDS011;28144;49.920;18.730;2022-09-27T14:53:30;13.93;;;5.60;;
42514;SDS011;28144;49.920;18.730;2022-09-27T14:56:00;7.13;;;4.32;;
42514;SDS011;28144;49.920;18.730;2022-09-27T14:58:27;7.72;;;3.90;;
42514;SDS011;28144;49.920;18.730;2022-09-27T15:00:54;7.10;;;4.97;;
42514;SDS011;28144;49.920;18.730;2022-09-27T15:03:38;7.20;;;4.22;;
42514;SDS011;28144;49.920;18.730;2022-09-27T15:06:04;9.68;;;6.03;;
42514;SDS011;28144;49.920;18.730;2022-09-27T15:08:30;11.60;;;5.03;;
42514;SDS011;28144;49.920;18.730;2022-09-27T15:10:59;24.67;;;8.60;;
42514;SDS011;28144;49.920;18.730;2022-09-27T15:13:26;14.30;;;8.60;;
42514;SDS011;28144;49.920;18.730;2022-09-27T15:19:04;9.57;;;5.85;;
42514;SDS011;28144;49.920;18.730;2022-09-27T15:21:39;11.20;;;4.95;;
42514;SDS011;28144;49.920;18.730;2022-09-27T15:24:33;13.27;;;5.70;;
42514;SDS011;28144;49.920;18.730;2022-09-27T15:26:59;10.60;;;5.55;;
42514;SDS011;28144;49.920;18.730;2022-09-27T15:29:26;10.15;;;6.22;;
42514;SDS011;28144;49.920;18.730;2022-09-27T15:34:28;44.80;;;26.87;;
42514;SDS011;28144;49.920;18.730;2022-09-27T15:39:31;15.45;;;8.95;;
42514;SDS011;28144;49.920;18.730;2022-09-27T15:42:08;12.93;;;7.55;;
42514;SDS011;28144;49.920;18.730;2022-09-27T15:49:58;13.70;;;7.88;;
42514;SDS011;28144;49.920;18.730;2022-09-27T15:52:47;10.65;;;5.30;;
42514;SDS011;28144;49.920;18.730;2022-09-27T15:55:17;15.68;;;8.55;;
42514;SDS011;28144;49.920;18.730;2022-09-27T15:57:45;9.52;;;6.72;;
42514;SDS011;28144;49.920;18.730;2022-09-27T16:00:15;7.85;;;5.47;;
42514;SDS011;28144;49.920;18.730;2022-09-27T16:02:42;13.05;;;8.45;;
42514;SDS011;28144;49.920;18.730;2022-09-27T16:05:08;8.40;;;5.47;;
42514;SDS011;28144;49.920;18.730;2022-09-27T16:07:34;7.00;;;5.27;;
42514;SDS011;28144;49.920;18.730;2022-09-27T16:10:08;9.50;;;4.38;;
42514;SDS011;28144;49.920;18.730;2022-09-27T16:12:39;13.75;;;8.10;;
42514;SDS011;28144;49.920;18.730;2022-09-27T16:15:04;10.93;;;5.60;;
42514;SDS011;28144;49.920;18.730;2022-09-27T16:17:30;16.48;;;8.52;;
42514;SDS011;28144;49.920;18.730;2022-09-27T16:19:56;11.47;;;5.47;;
42514;SDS011;28144;49.920;18.730;2022-09-27T16:22:22;9.67;;;5.93;;
42514;SDS011;28144;49.920;18.730;2022-09-27T16:24:47;11.63;;;6.03;;
42514;SDS011;28144;49.920;18.730;2022-09-27T16:27:24;9.45;;;5.60;;
42514;SDS011;28144;49.920;18.730;2022-09-27T16:32:22;8.10;;;5.22;;
42514;SDS011;28144;49.920;18.730;2022-09-27T16:34:48;10.40;;;5.77;;
42514;SDS011;28144;49.920;18.730;2022-09-27T16:37:14;10.48;;;6.63;;
42514;SDS011;28144;49.920;18.730;2022-09-27T16:39:40;9.40;;;6.00;;
42514;SDS011;28144;49.920;18.730;2022-09-27T16:42:05;9.47;;;5.47;;
42514;SDS011;28144;49.920;18.730;2022-09-27T16:44:32;12.60;;;9.35;;
42514;SDS011;28144;49.920;18.730;2022-09-27T16:47:04;10.95;;;6.78;;
42514;SDS011;28144;49.920;18.730;2022-09-27T16:49:31;9.90;;;6.25;;
42514;SDS011;28144;49.920;18.730;2022-09-27T16:52:16;11.05;;;6.70;;
42514;SDS011;28144;49.920;18.730;2022-09-27T16:54:42;9.87;;;6.17;;
42514;SDS011;28144;49.920;18.730;2022-09-27T16:57:07;9.57;;;6.20;;
42514;SDS011;28144;49.920;18.730;2022-09-27T16:59:33;11.35;;;6.45;;
42514;SDS011;28144;49.920;18.730;2022-09-27T17:01:59;12.70;;;7.53;;
42514;SDS011;28144;49.920;18.730;2022-09-27T17:04:25;12.27;;;6.97;;
42514;SDS011;28144;49.920;18.730;2022-09-27T17:06:52;13.93;;;8.18;;
42514;SDS011;28144;49.920;18.730;2022-09-27T17:09:19;12.13;;;7.18;;
42514;SDS011;28144;49.920;18.730;2022-09-27T17:14:11;10.57;;;6.75;;
42514;SDS011;28144;49.920;18.730;2022-09-27T17:16:49;12.00;;;8.20;;
42514;SDS011;28144;49.920;18.730;2022-09-27T17:19:22;15.93;;;10.68;;
42514;SDS011;28144;49.920;18.730;2022-09-27T17:21:48;16.67;;;7.32;;
42514;SDS011;28144;49.920;18.730;2022-09-27T17:24:14;12.70;;;7.97;;
42514;SDS011;28144;49.920;18.730;2022-09-27T17:26:41;13.98;;;8.07;;
42514;SDS011;28144;49.920;18.730;2022-09-27T17:29:08;8.68;;;6.57;;
42514;SDS011;28144;49.920;18.730;2022-09-27T17:31:35;10.50;;;6.40;;
42514;SDS011;28144;49.920;18.730;2022-09-27T17:34:02;11.88;;;6.55;;
42514;SDS011;28144;49.920;18.730;2022-09-27T17:36:28;13.13;;;7.37;;
42514;SDS011;28144;49.920;18.730;2022-09-27T17:38:57;13.73;;;8.25;;
42514;SDS011;28144;49.920;18.730;2022-09-27T17:41:25;10.45;;;6.80;;
42514;SDS011;28144;49.920;18.730;2022-09-27T17:43:52;11.43;;;7.43;;
42514;SDS011;28144;49.920;18.730;2022-09-27T17:46:21;12.85;;;7.22;;
42514;SDS011;28144;49.920;18.730;2022-09-27T17:48:49;15.07;;;7.93;;
42514;SDS011;28144;49.920;18.730;2022-09-27T17:51:34;13.50;;;7.28;;
42514;SDS011;28144;49.920;18.730;2022-09-27T17:54:01;12.68;;;7.18;;
42514;SDS011;28144;49.920;18.730;2022-09-27T17:56:29;13.20;;;7.95;;
42514;SDS011;28144;49.920;18.730;2022-09-27T17:58:57;14.60;;;9.23;;
42514;SDS011;28144;49.920;18.730;2022-09-27T18:01:23;15.77;;;9.40;;
42514;SDS011;28144;49.920;18.730;2022-09-27T18:03:53;24.63;;;10.48;;
42514;SDS011;28144;49.920;18.730;2022-09-27T18:06:20;15.52;;;9.90;;
42514;SDS011;28144;49.920;18.730;2022-09-27T18:08:47;20.67;;;12.23;;
42514;SDS011;28144;49.920;18.730;2022-09-27T18:11:13;23.47;;;12.00;;
42514;SDS011;28144;49.920;18.730;2022-09-27T18:13:40;22.42;;;12.25;;